IWJ weather

Iwami Airport
Masuda, Shimane Prefecture, Japan

Public forecast

Using degrees Celsius for public forecast. Weather courtesy of forecast.io.

METAR (pilot weather report)

Retrieved 2019/05/24 06:00 UTC (18 minutes ago):

RJOW 240600Z 29013KT CAVOK 26/16 Q1012

TAF (pilot weather forecast)

Forecast is more than 12 hours old.

Closest forecast is Iwakuni Marine Corps Air Station, 38.9 nm (72.0 km) SE. Retrieved 2017/01/19 15:12 UTC (2 years ago):

TAF RJOI 191500Z 1915/2015 30008KT 9999 FEW030 SCT230 520807 QNH2998INS BECMG 1917/1919 27018G25KT 8000 -SHRA BR SCT020 BKN050 630209 530009 530902 QNH2994INS FM192000 27018G25KT 4800 SHRA BR SCT005 BKN030 OVC045 630208 530009 530902 QNH2990INS TEMPO 1920/2002 4000 SHRA BR SCT005 BKN020 OVC030 FM200200 27020G32KT 6000 SHSNRA SCT008 BKN030 OVC045 630209 530001 560108 QNH2985INS FM200400 27020G32KT 4800 -SHSN SCT015 BKN030 OVC045 630309 530001 560108 QNH2980INS FM200800 27018G32KT 4800 -SHSN SCT015 BKN030 OVC060 630309 530006 QNH2985INS FM201200 29015G25KT 3200 SHSN BKN015 OVC050 630209 631102 520006 QNH2993INS T02/1920Z T09/2002Z